Pagrindinis puslapis
METAR-TAF:

METAR-TAF

Oro uostai :

Kunmingas, Kinija

platuma: 25-01N, ilguma: 102-41E, Aukštis: 1892 m

Dabartinis oras

Ataskaita buvo paskelbta 30 minutes, ne 14:00 UTC
Vėjas 8 kt iš Šiaurės/Šiaurės Rytų
Temperatūra 15°C
Drėgmė 100%
Slėgis 1021 hPa
Matomumas: 6000 m
Mažai debesys ne aukštis 1000 ft
Apsiniaukę ne aukštis 3300 ft

METAR: ZPPP 261400Z 02004MPS 6000 FEW010 OVC033 15/15 Q1021 NOSIG

Laikas: 22:30 (14:30 UTC)

Prognozė

Ataskaita buvo paskelbta 5 valandos ir 22 minutes, ne 09:08 UTC
Prognozė galioja nuo 26 metu 12 UTC su 27 metu 12 UTC
Vėjas 8 kt iš Šiaurės Rytų
Matomumas: 6000 m
Išsisklaidę debesys ne aukštis 400 ft
Su prošvaistėmis ne aukštis 3000 ft
Tapsmas
nuo 27 metu 02 UTC su 27 metu 03 UTC
Vėjas 10 kt iš Pietvakarių

TAF: ZPPP 260908Z 2612/2712 04004MPS 6000 SCT004 BKN030 TX20/2708Z TN14/2623Z BECMG 2702/2703 22005MPS

Orai ataskaitas ir orų prognozės (METAR, TAF).

turimą stotys yra geltonos ir raudonos taškus žemėlapyje.

Perkelti pele per norėdami pamatyti stoties vardą.

Tada spustelėkite, norėdami matyti oro stebėjimo ir prognozės.

Norėdami pakeisti žemėlapį: spustelėkite ant žalios mygtukų su juodo kryžiaus žemyn,; žalią mygtuką su brūkšneliu, jei norite nutolinti; arba žalių rodyklių gretimoms žemėlapius.


METAR-TAF: